sensor_id;sensor_type;location;lat;lon;timestamp;pressure;altitude;pressure_sealevel;temperature;humidity
64827;BME280;51265;53.972;12.286;2023-04-08T00:00:48;101693.47;;;4.56;100.00
64827;BME280;51265;53.972;12.286;2023-04-08T00:03:14;101681.69;;;4.43;100.00
64827;BME280;51265;53.972;12.286;2023-04-08T00:05:41;101686.66;;;4.46;100.00
64827;BME280;51265;53.972;12.286;2023-04-08T00:08:07;101688.34;;;4.47;100.00
64827;BME280;51265;53.972;12.286;2023-04-08T00:10:34;101694.63;;;4.48;100.00
64827;BME280;51265;53.972;12.286;2023-04-08T00:13:00;101693.06;;;4.40;100.00
64827;BME280;51265;53.972;12.286;2023-04-08T00:15:26;101685.31;;;4.37;100.00
64827;BME280;51265;53.972;12.286;2023-04-08T00:17:53;101681.56;;;4.50;100.00
64827;BME280;51265;53.972;12.286;2023-04-08T00:20:22;101684.16;;;4.45;100.00
64827;BME280;51265;53.972;12.286;2023-04-08T00:22:48;101686.53;;;4.41;100.00
64827;BME280;51265;53.972;12.286;2023-04-08T00:25:15;101683.78;;;4.41;100.00
64827;BME280;51265;53.972;12.286;2023-04-08T00:27:42;101692.09;;;4.46;100.00
64827;BME280;51265;53.972;12.286;2023-04-08T00:30:08;101691.41;;;4.39;100.00
64827;BME280;51265;53.972;12.286;2023-04-08T00:32:35;101688.34;;;4.47;100.00
64827;BME280;51265;53.972;12.286;2023-04-08T00:35:01;101685.63;;;4.47;100.00
64827;BME280;51265;53.972;12.286;2023-04-08T00:37:28;101684.09;;;4.52;100.00
64827;BME280;51265;53.972;12.286;2023-04-08T00:39:54;101676.69;;;4.40;100.00
64827;BME280;51265;53.972;12.286;2023-04-08T00:42:21;101668.88;;;4.44;100.00
64827;BME280;51265;53.972;12.286;2023-04-08T00:44:47;101671.44;;;4.39;100.00
64827;BME280;51265;53.972;12.286;2023-04-08T00:47:14;101674.53;;;4.42;100.00
64827;BME280;51265;53.972;12.286;2023-04-08T00:49:42;101667.88;;;4.38;100.00
64827;BME280;51265;53.972;12.286;2023-04-08T00:52:09;101667.16;;;4.31;100.00
64827;BME280;51265;53.972;12.286;2023-04-08T00:54:37;101678.09;;;4.31;100.00
64827;BME280;51265;53.972;12.286;2023-04-08T00:57:04;101670.69;;;4.20;100.00
64827;BME280;51265;53.972;12.286;2023-04-08T00:59:31;101665.69;;;4.17;100.00
64827;BME280;51265;53.972;12.286;2023-04-08T01:02:09;101671.13;;;4.17;100.00
64827;BME280;51265;53.972;12.286;2023-04-08T01:05:13;101673.41;;;4.20;100.00
64827;BME280;51265;53.972;12.286;2023-04-08T01:07:45;101683.53;;;4.31;100.00
64827;BME280;51265;53.972;12.286;2023-04-08T01:10:21;101681.19;;;4.35;100.00
64827;BME280;51265;53.972;12.286;2023-04-08T01:12:57;101678.22;;;4.36;100.00
64827;BME280;51265;53.972;12.286;2023-04-08T01:15:25;101674.72;;;4.29;100.00
64827;BME280;51265;53.972;12.286;2023-04-08T01:17:54;101679.75;;;4.32;100.00
64827;BME280;51265;53.972;12.286;2023-04-08T01:20:25;101679.75;;;4.32;100.00
64827;BME280;51265;53.972;12.286;2023-04-08T01:23:08;101673.09;;;4.28;100.00
64827;BME280;51265;53.972;12.286;2023-04-08T01:25:37;101680.88;;;4.24;100.00
64827;BME280;51265;53.972;12.286;2023-04-08T01:28:09;101681.81;;;4.18;100.00
64827;BME280;51265;53.972;12.286;2023-04-08T01:30:38;101678.41;;;4.23;100.00
64827;BME280;51265;53.972;12.286;2023-04-08T01:33:09;101689.00;;;4.13;100.00
64827;BME280;51265;53.972;12.286;2023-04-08T01:35:37;101683.34;;;4.14;100.00
64827;BME280;51265;53.972;12.286;2023-04-08T01:38:06;101685.44;;;4.31;100.00
64827;BME280;51265;53.972;12.286;2023-04-08T01:40:34;101689.91;;;4.25;100.00
64827;BME280;51265;53.972;12.286;2023-04-08T01:43:04;101685.47;;;4.12;100.00
64827;BME280;51265;53.972;12.286;2023-04-08T01:45:31;101687.94;;;4.14;100.00
64827;BME280;51265;53.972;12.286;2023-04-08T01:47:59;101695.97;;;4.09;100.00
64827;BME280;51265;53.972;12.286;2023-04-08T01:50:26;101700.59;;;4.08;100.00
64827;BME280;51265;53.972;12.286;2023-04-08T01:52:54;101699.31;;;4.11;100.00
64827;BME280;51265;53.972;12.286;2023-04-08T01:55:23;101704.22;;;4.20;100.00
64827;BME280;51265;53.972;12.286;2023-04-08T01:57:51;101701.75;;;4.19;100.00
64827;BME280;51265;53.972;12.286;2023-04-08T02:00:22;101696.41;;;4.24;100.00
64827;BME280;51265;53.972;12.286;2023-04-08T02:02:51;101691.56;;;4.26;100.00
64827;BME280;51265;53.972;12.286;2023-04-08T02:05:18;101700.94;;;4.30;100.00
64827;BME280;51265;53.972;12.286;2023-04-08T02:07:46;101695.81;;;4.22;100.00
64827;BME280;51265;53.972;12.286;2023-04-08T02:10:12;101693.13;;;4.34;100.00
64827;BME280;51265;53.972;12.286;2023-04-08T02:12:39;101703.53;;;4.25;100.00
64827;BME280;51265;53.972;12.286;2023-04-08T02:15:10;101700.34;;;4.28;100.00
64827;BME280;51265;53.972;12.286;2023-04-08T02:17:50;101693.63;;;4.12;100.00
64827;BME280;51265;53.972;12.286;2023-04-08T02:20:37;101703.03;;;4.16;100.00
64827;BME280;51265;53.972;12.286;2023-04-08T02:23:21;101702.63;;;4.13;100.00
64827;BME280;51265;53.972;12.286;2023-04-08T02:25:51;101700.75;;;4.13;100.00
64827;BME280;51265;53.972;12.286;2023-04-08T02:28:20;101702.94;;;4.23;100.00
64827;BME280;51265;53.972;12.286;2023-04-08T02:30:51;101697.94;;;4.20;100.00
64827;BME280;51265;53.972;12.286;2023-04-08T02:33:19;101704.16;;;4.27;100.00
64827;BME280;51265;53.972;12.286;2023-04-08T02:35:48;101703.66;;;4.30;100.00
64827;BME280;51265;53.972;12.286;2023-04-08T02:38:15;101720.31;;;4.40;100.00
64827;BME280;51265;53.972;12.286;2023-04-08T02:40:43;101717.66;;;4.52;100.00
64827;BME280;51265;53.972;12.286;2023-04-08T02:43:09;101714.22;;;4.57;100.00
64827;BME280;51265;53.972;12.286;2023-04-08T02:45:41;101709.97;;;4.61;100.00
64827;BME280;51265;53.972;12.286;2023-04-08T02:48:09;101709.97;;;4.61;100.00
64827;BME280;51265;53.972;12.286;2023-04-08T02:50:35;101705.72;;;4.65;100.00
64827;BME280;51265;53.972;12.286;2023-04-08T02:53:02;101709.03;;;4.67;100.00
64827;BME280;51265;53.972;12.286;2023-04-08T02:55:30;101702.25;;;4.58;100.00
64827;BME280;51265;53.972;12.286;2023-04-08T02:57:57;101706.38;;;4.48;100.00
64827;BME280;51265;53.972;12.286;2023-04-08T03:00:23;101706.94;;;4.50;100.00
64827;BME280;51265;53.972;12.286;2023-04-08T03:02:49;101714.22;;;4.57;100.00
64827;BME280;51265;53.972;12.286;2023-04-08T03:05:16;101701.16;;;4.59;100.00
64827;BME280;51265;53.972;12.286;2023-04-08T03:07:42;101706.22;;;4.43;100.00
64827;BME280;51265;53.972;12.286;2023-04-08T03:10:09;101709.28;;;4.35;100.00
64827;BME280;51265;53.972;12.286;2023-04-08T03:12:35;101718.88;;;4.38;100.00
64827;BME280;51265;53.972;12.286;2023-04-08T03:15:02;101715.50;;;4.24;100.00
64827;BME280;51265;53.972;12.286;2023-04-08T03:17:29;101709.22;;;4.23;100.00
64827;BME280;51265;53.972;12.286;2023-04-08T03:19:57;101708.91;;;4.13;100.00
64827;BME280;51265;53.972;12.286;2023-04-08T03:22:24;101715.19;;;4.14;100.00
64827;BME280;51265;53.972;12.286;2023-04-08T03:24:50;101722.34;;;4.15;100.00
64827;BME280;51265;53.972;12.286;2023-04-08T03:27:17;101725.84;;;4.04;100.00
64827;BME280;51265;53.972;12.286;2023-04-08T03:29:43;101725.22;;;4.20;100.00
64827;BME280;51265;53.972;12.286;2023-04-08T03:32:11;101730.41;;;4.21;100.00
64827;BME280;51265;53.972;12.286;2023-04-08T03:34:38;101730.50;;;4.33;100.00
64827;BME280;51265;53.972;12.286;2023-04-08T03:37:34;101725.97;;;4.27;100.00
64827;BME280;51265;53.972;12.286;2023-04-08T03:40:02;101733.06;;;4.28;100.00
64827;BME280;51265;53.972;12.286;2023-04-08T03:42:28;101730.50;;;4.33;100.00
64827;BME280;51265;53.972;12.286;2023-04-08T03:44:54;101733.84;;;4.35;100.00
64827;BME280;51265;53.972;12.286;2023-04-08T03:47:21;101727.31;;;4.36;100.00
64827;BME280;51265;53.972;12.286;2023-04-08T03:49:47;101732.66;;;4.43;100.00
64827;BME280;51265;53.972;12.286;2023-04-08T03:52:14;101738.34;;;4.41;100.00
64827;BME280;51265;53.972;12.286;2023-04-08T03:54:40;101745.84;;;4.46;100.00
64827;BME280;51265;53.972;12.286;2023-04-08T03:57:06;101738.53;;;4.28;100.00
64827;BME280;51265;53.972;12.286;2023-04-08T03:59:33;101734.75;;;4.29;100.00
64827;BME280;51265;53.972;12.286;2023-04-08T04:01:59;101732.03;;;4.11;100.00
64827;BME280;51265;53.972;12.286;2023-04-08T04:04:26;101737.03;;;4.14;100.00
64827;BME280;51265;53.972;12.286;2023-04-08T04:06:52;101746.19;;;4.19;100.00
64827;BME280;51265;53.972;12.286;2023-04-08T04:09:18;101735.84;;;4.10;100.00
64827;BME280;51265;53.972;12.286;2023-04-08T04:11:45;101738.19;;;4.06;100.00
64827;BME280;51265;53.972;12.286;2023-04-08T04:14:11;101746.75;;;4.10;100.00
64827;BME280;51265;53.972;12.286;2023-04-08T04:16:38;101749.00;;;4.13;100.00
64827;BME280;51265;53.972;12.286;2023-04-08T04:19:04;101751.44;;;4.03;100.00
64827;BME280;51265;53.972;12.286;2023-04-08T04:21:31;101760.19;;;4.05;100.00
64827;BME280;51265;53.972;12.286;2023-04-08T04:23:57;101761.34;;;4.15;100.00
64827;BME280;51265;53.972;12.286;2023-04-08T04:26:23;101763.38;;;4.20;100.00
64827;BME280;51265;53.972;12.286;2023-04-08T04:28:50;101755.06;;;4.15;100.00
64827;BME280;51265;53.972;12.286;2023-04-08T04:31:21;101766.47;;;4.05;100.00
64827;BME280;51265;53.972;12.286;2023-04-08T04:33:48;101756.28;;;4.00;100.00
64827;BME280;51265;53.972;12.286;2023-04-08T04:36:15;101759.91;;;3.94;100.00
64827;BME280;51265;53.972;12.286;2023-04-08T04:38:41;101766.59;;;3.98;100.00
64827;BME280;51265;53.972;12.286;2023-04-08T04:41:08;101763.78;;;3.87;100.00
64827;BME280;51265;53.972;12.286;2023-04-08T04:43:34;101765.50;;;3.81;100.00
64827;BME280;51265;53.972;12.286;2023-04-08T04:46:01;101765.50;;;3.81;100.00
64827;BME280;51265;53.972;12.286;2023-04-08T04:48:28;101772.03;;;3.98;100.00
64827;BME280;51265;53.972;12.286;2023-04-08T04:50:56;101780.34;;;4.04;100.00
64827;BME280;51265;53.972;12.286;2023-04-08T04:53:23;101780.75;;;4.07;100.00
64827;BME280;51265;53.972;12.286;2023-04-08T04:55:49;101771.88;;;4.12;100.00
64827;BME280;51265;53.972;12.286;2023-04-08T04:58:16;101776.06;;;4.14;100.00
64827;BME280;51265;53.972;12.286;2023-04-08T05:00:44;101772.84;;;4.17;100.00
64827;BME280;51265;53.972;12.286;2023-04-08T05:03:12;101778.53;;;4.16;100.00
64827;BME280;51265;53.972;12.286;2023-04-08T05:05:38;101786.41;;;4.24;100.00
64827;BME280;51265;53.972;12.286;2023-04-08T05:08:04;101788.22;;;4.30;100.00
64827;BME280;51265;53.972;12.286;2023-04-08T05:10:32;101787.75;;;4.33;100.00
64827;BME280;51265;53.972;12.286;2023-04-08T05:12:59;101795.94;;;4.33;100.00
64827;BME280;51265;53.972;12.286;2023-04-08T05:15:25;101800.50;;;4.39;100.00
64827;BME280;51265;53.972;12.286;2023-04-08T05:17:52;101798.22;;;4.36;100.00
64827;BME280;51265;53.972;12.286;2023-04-08T05:20:18;101799.19;;;4.42;100.00
64827;BME280;51265;53.972;12.286;2023-04-08T05:22:44;101800.63;;;4.44;100.00
64827;BME280;51265;53.972;12.286;2023-04-08T05:25:12;101809.59;;;4.52;100.00
64827;BME280;51265;53.972;12.286;2023-04-08T05:27:38;101797.31;;;4.24;100.00
64827;BME280;51265;53.972;12.286;2023-04-08T05:30:07;101804.59;;;4.12;100.00
64827;BME280;51265;53.972;12.286;2023-04-08T05:32:34;101807.25;;;4.18;100.00
64827;BME280;51265;53.972;12.286;2023-04-08T05:35:02;101805.88;;;4.09;100.00
64827;BME280;51265;53.972;12.286;2023-04-08T05:37:28;101813.84;;;4.11;100.00
64827;BME280;51265;53.972;12.286;2023-04-08T05:39:55;101821.09;;;4.17;100.00
64827;BME280;51265;53.972;12.286;2023-04-08T05:42:21;101814.72;;;4.05;100.00
64827;BME280;51265;53.972;12.286;2023-04-08T05:44:48;101823.09;;;4.10;100.00
64827;BME280;51265;53.972;12.286;2023-04-08T05:47:14;101827.19;;;4.19;100.00
64827;BME280;51265;53.972;12.286;2023-04-08T05:49:41;101816.72;;;4.16;100.00
64827;BME280;51265;53.972;12.286;2023-04-08T05:52:07;101832.00;;;4.17;100.00
64827;BME280;51265;53.972;12.286;2023-04-08T05:54:34;101828.38;;;4.23;100.00
64827;BME280;51265;53.972;12.286;2023-04-08T05:57:00;101834.13;;;4.33;100.00
64827;BME280;51265;53.972;12.286;2023-04-08T05:59:26;101829.56;;;4.45;100.00
64827;BME280;51265;53.972;12.286;2023-04-08T06:01:53;101836.31;;;4.43;100.00
64827;BME280;51265;53.972;12.286;2023-04-08T06:04:20;101830.94;;;4.55;100.00
64827;BME280;51265;53.972;12.286;2023-04-08T06:06:46;101823.53;;;4.43;100.00
64827;BME280;51265;53.972;12.286;2023-04-08T06:09:12;101834.44;;;4.43;100.00
64827;BME280;51265;53.972;12.286;2023-04-08T06:11:39;101833.50;;;4.49;100.00
64827;BME280;51265;53.972;12.286;2023-04-08T06:14:05;101835.03;;;4.45;100.00
64827;BME280;51265;53.972;12.286;2023-04-08T06:16:32;101840.94;;;4.61;100.00
64827;BME280;51265;53.972;12.286;2023-04-08T06:18:58;101849.72;;;4.63;100.00
64827;BME280;51265;53.972;12.286;2023-04-08T06:21:25;101847.97;;;4.68;100.00
64827;BME280;51265;53.972;12.286;2023-04-08T06:23:52;101842.88;;;4.72;100.00
64827;BME280;51265;53.972;12.286;2023-04-08T06:26:19;101844.00;;;4.83;100.00
64827;BME280;51265;53.972;12.286;2023-04-08T06:28:45;101839.00;;;4.80;100.00
64827;BME280;51265;53.972;12.286;2023-04-08T06:31:12;101854.53;;;4.79;100.00
64827;BME280;51265;53.972;12.286;2023-04-08T06:33:38;101847.13;;;4.68;100.00
64827;BME280;51265;53.972;12.286;2023-04-08T06:36:06;101856.16;;;4.68;100.00
64827;BME280;51265;53.972;12.286;2023-04-08T06:38:33;101848.81;;;4.69;100.00
64827;BME280;51265;53.972;12.286;2023-04-08T06:41:03;101862.47;;;4.69;100.00
64827;BME280;51265;53.972;12.286;2023-04-08T06:43:30;101857.84;;;4.51;100.00
64827;BME280;51265;53.972;12.286;2023-04-08T06:45:56;101861.56;;;4.38;100.00
64827;BME280;51265;53.972;12.286;2023-04-08T06:48:24;101867.19;;;4.43;100.00
64827;BME280;51265;53.972;12.286;2023-04-08T06:50:55;101872.94;;;4.54;100.00
64827;BME280;51265;53.972;12.286;2023-04-08T06:53:22;101875.06;;;4.52;100.00
64827;BME280;51265;53.972;12.286;2023-04-08T06:55:51;101880.53;;;4.52;100.00
64827;BME280;51265;53.972;12.286;2023-04-08T06:58:17;101875.72;;;4.65;100.00
64827;BME280;51265;53.972;12.286;2023-04-08T07:00:44;101882.16;;;4.71;100.00
64827;BME280;51265;53.972;12.286;2023-04-08T07:03:10;101880.50;;;4.70;100.00
64827;BME280;51265;53.972;12.286;2023-04-08T07:05:37;101880.94;;;4.85;100.00
64827;BME280;51265;53.972;12.286;2023-04-08T07:08:04;101884.44;;;4.74;100.00
64827;BME280;51265;53.972;12.286;2023-04-08T07:10:31;101887.13;;;4.92;100.00
64827;BME280;51265;53.972;12.286;2023-04-08T07:12:57;101883.63;;;5.04;100.00
64827;BME280;51265;53.972;12.286;2023-04-08T07:15:24;101886.28;;;5.22;100.00
64827;BME280;51265;53.972;12.286;2023-04-08T07:17:50;101889.81;;;5.41;100.00
64827;BME280;51265;53.972;12.286;2023-04-08T07:20:16;101883.97;;;5.37;100.00
64827;BME280;51265;53.972;12.286;2023-04-08T07:22:43;101878.13;;;5.34;100.00
64827;BME280;51265;53.972;12.286;2023-04-08T07:25:09;101870.84;;;5.16;100.00
64827;BME280;51265;53.972;12.286;2023-04-08T07:27:36;101879.63;;;5.18;100.00
64827;BME280;51265;53.972;12.286;2023-04-08T07:30:02;101890.72;;;5.23;100.00
64827;BME280;51265;53.972;12.286;2023-04-08T07:32:29;101884.63;;;5.21;100.00
64827;BME280;51265;53.972;12.286;2023-04-08T07:34:55;101887.97;;;5.23;100.00
64827;BME280;51265;53.972;12.286;2023-04-08T07:37:22;101892.78;;;5.39;100.00
64827;BME280;51265;53.972;12.286;2023-04-08T07:39:50;101889.97;;;5.58;100.00
64827;BME280;51265;53.972;12.286;2023-04-08T07:42:16;101896.63;;;5.62;100.00
64827;BME280;51265;53.972;12.286;2023-04-08T07:44:46;101881.66;;;5.53;100.00
64827;BME280;51265;53.972;12.286;2023-04-08T07:47:13;101891.16;;;5.62;100.00
64827;BME280;51265;53.972;12.286;2023-04-08T07:49:39;101885.47;;;5.75;100.00
64827;BME280;51265;53.972;12.286;2023-04-08T07:52:06;101887.41;;;5.86;100.00
64827;BME280;51265;53.972;12.286;2023-04-08T07:54:33;101887.13;;;5.76;100.00
64827;BME280;51265;53.972;12.286;2023-04-08T07:56:59;101873.09;;;5.61;100.00
64827;BME280;51265;53.972;12.286;2023-04-08T07:59:27;101877.84;;;5.54;100.00
64827;BME280;51265;53.972;12.286;2023-04-08T08:01:54;101882.84;;;5.57;100.00
64827;BME280;51265;53.972;12.286;2023-04-08T08:04:20;101880.00;;;5.75;100.00
64827;BME280;51265;53.972;12.286;2023-04-08T08:06:46;101876.75;;;5.55;100.00
64827;BME280;51265;53.972;12.286;2023-04-08T08:09:13;101885.94;;;5.72;100.00
64827;BME280;51265;53.972;12.286;2023-04-08T08:11:39;101883.13;;;5.90;100.00
64827;BME280;51265;53.972;12.286;2023-04-08T08:14:06;101887.06;;;5.94;100.00
64827;BME280;51265;53.972;12.286;2023-04-08T08:16:33;101880.06;;;5.98;100.00
64827;BME280;51265;53.972;12.286;2023-04-08T08:18:59;101884.78;;;5.91;100.00
64827;BME280;51265;53.972;12.286;2023-04-08T08:21:25;101878.13;;;5.87;100.00
64827;BME280;51265;53.972;12.286;2023-04-08T08:23:52;101883.84;;;5.97;100.00
64827;BME280;51265;53.972;12.286;2023-04-08T08:26:19;101884.09;;;6.08;100.00
64827;BME280;51265;53.972;12.286;2023-04-08T08:28:46;101887.56;;;6.15;100.00
64827;BME280;51265;53.972;12.286;2023-04-08T08:31:12;101891.94;;;6.16;100.00
64827;BME280;51265;53.972;12.286;2023-04-08T08:33:39;101888.97;;;6.29;100.00
64827;BME280;51265;53.972;12.286;2023-04-08T08:36:05;101888.13;;;6.40;100.00
64827;BME280;51265;53.972;12.286;2023-04-08T08:38:32;101904.38;;;6.59;100.00
64827;BME280;51265;53.972;12.286;2023-04-08T08:40:59;101897.25;;;6.58;100.00
64827;BME280;51265;53.972;12.286;2023-04-08T08:43:26;101895.00;;;6.55;100.00
64827;BME280;51265;53.972;12.286;2023-04-08T08:45:54;101893.09;;;6.43;100.00
64827;BME280;51265;53.972;12.286;2023-04-08T08:48:20;101888.22;;;6.45;100.00
64827;BME280;51265;53.972;12.286;2023-04-08T08:50:47;101887.38;;;6.57;100.00
64827;BME280;51265;53.972;12.286;2023-04-08T08:53:13;101872.91;;;6.33;100.00
64827;BME280;51265;53.972;12.286;2023-04-08T08:55:39;101878.38;;;6.21;100.00
64827;BME280;51265;53.972;12.286;2023-04-08T08:58:06;101886.13;;;6.24;100.00
64827;BME280;51265;53.972;12.286;2023-04-08T09:00:40;101886.38;;;6.11;100.00
64827;BME280;51265;53.972;12.286;2023-04-08T09:03:23;101876.84;;;6.13;100.00
64827;BME280;51265;53.972;12.286;2023-04-08T09:05:57;101882.09;;;6.15;100.00
64827;BME280;51265;53.972;12.286;2023-04-08T09:10:52;101887.19;;;5.99;100.00
64827;BME280;51265;53.972;12.286;2023-04-08T09:13:18;101896.84;;;6.02;100.00
64827;BME280;51265;53.972;12.286;2023-04-08T09:16:12;101897.88;;;6.24;100.00
64827;BME280;51265;53.972;12.286;2023-04-08T09:18:40;101893.59;;;6.17;100.00
64827;BME280;51265;53.972;12.286;2023-04-08T09:21:10;101900.00;;;6.22;100.00
64827;BME280;51265;53.972;12.286;2023-04-08T09:23:43;101899.53;;;6.14;100.00
64827;BME280;51265;53.972;12.286;2023-04-08T09:28:55;101898.81;;;6.30;100.00
64827;BME280;51265;53.972;12.286;2023-04-08T09:31:30;101900.00;;;6.34;100.00
64827;BME280;51265;53.972;12.286;2023-04-08T09:33:59;101902.38;;;6.42;100.00
64827;BME280;51265;53.972;12.286;2023-04-08T09:36:26;101906.91;;;6.48;100.00
64827;BME280;51265;53.972;12.286;2023-04-08T09:38:53;101902.47;;;6.59;100.00
64827;BME280;51265;53.972;12.286;2023-04-08T09:41:21;101901.97;;;6.74;100.00
64827;BME280;51265;53.972;12.286;2023-04-08T09:43:50;101900.50;;;6.95;100.00
64827;BME280;51265;53.972;12.286;2023-04-08T09:46:31;101901.38;;;7.12;100.00
64827;BME280;51265;53.972;12.286;2023-04-08T09:49:05;101901.56;;;7.22;100.00
64827;BME280;51265;53.972;12.286;2023-04-08T09:51:49;101893.13;;;7.41;100.00
64827;BME280;51265;53.972;12.286;2023-04-08T09:54:20;101877.16;;;7.21;100.00
64827;BME280;51265;53.972;12.286;2023-04-08T09:57:00;101876.66;;;7.24;100.00
64827;BME280;51265;53.972;12.286;2023-04-08T09:59:33;101883.97;;;7.35;100.00
64827;BME280;51265;53.972;12.286;2023-04-08T10:02:06;101878.00;;;7.38;100.00
64827;BME280;51265;53.972;12.286;2023-04-08T10:04:38;101884.66;;;7.42;100.00
64827;BME280;51265;53.972;12.286;2023-04-08T10:07:07;101879.44;;;7.41;100.00
64827;BME280;51265;53.972;12.286;2023-04-08T10:09:34;101895.50;;;7.66;100.00
64827;BME280;51265;53.972;12.286;2023-04-08T10:12:03;101892.16;;;7.81;100.00
64827;BME280;51265;53.972;12.286;2023-04-08T10:14:30;101880.78;;;7.89;100.00
64827;BME280;51265;53.972;12.286;2023-04-08T10:17:26;101892.81;;;8.05;100.00
64827;BME280;51265;53.972;12.286;2023-04-08T10:19:54;101871.03;;;7.98;100.00
64827;BME280;51265;53.972;12.286;2023-04-08T10:27:41;101861.13;;;8.14;100.00
64827;BME280;51265;53.972;12.286;2023-04-08T10:33:02;101845.75;;;8.13;100.00
64827;BME280;51265;53.972;12.286;2023-04-08T10:35:35;101849.91;;;8.15;100.00
64827;BME280;51265;53.972;12.286;2023-04-08T10:38:02;101859.03;;;8.21;100.00
64827;BME280;51265;53.972;12.286;2023-04-08T10:40:34;101853.13;;;8.29;100.00
64827;BME280;51265;53.972;12.286;2023-04-08T10:43:04;101863.00;;;8.47;100.00
64827;BME280;51265;53.972;12.286;2023-04-08T10:45:31;101864.03;;;8.63;100.00
64827;BME280;51265;53.972;12.286;2023-04-08T10:48:22;101865.78;;;8.96;100.00
64827;BME280;51265;53.972;12.286;2023-04-08T10:50:58;101852.97;;;9.07;100.00
64827;BME280;51265;53.972;12.286;2023-04-08T10:58:36;101831.63;;;8.65;100.00
64827;BME280;51265;53.972;12.286;2023-04-08T11:01:12;101817.66;;;8.44;100.00
64827;BME280;51265;53.972;12.286;2023-04-08T11:03:41;101807.22;;;8.03;100.00
64827;BME280;51265;53.972;12.286;2023-04-08T11:06:07;101815.88;;;7.78;100.00
64827;BME280;51265;53.972;12.286;2023-04-08T11:08:35;101825.53;;;7.63;100.00
64827;BME280;51265;53.972;12.286;2023-04-08T11:11:02;101831.59;;;7.48;100.00
64827;BME280;51265;53.972;12.286;2023-04-08T11:13:32;101847.44;;;7.46;100.00
64827;BME280;51265;53.972;12.286;2023-04-08T11:15:59;101862.59;;;7.66;100.00
64827;BME280;51265;53.972;12.286;2023-04-08T11:18:26;101871.78;;;7.93;100.00
64827;BME280;51265;53.972;12.286;2023-04-08T11:20:52;101877.22;;;8.27;100.00
64827;BME280;51265;53.972;12.286;2023-04-08T11:23:19;101881.06;;;8.65;100.00
64827;BME280;51265;53.972;12.286;2023-04-08T11:25:46;101867.53;;;8.80;100.00
64827;BME280;51265;53.972;12.286;2023-04-08T11:28:13;101846.38;;;8.81;100.00
64827;BME280;51265;53.972;12.286;2023-04-08T11:30:40;101836.63;;;8.68;100.00
64827;BME280;51265;53.972;12.286;2023-04-08T11:33:07;101832.84;;;8.74;100.00
64827;BME280;51265;53.972;12.286;2023-04-08T11:35:33;101849.19;;;9.13;100.00
64827;BME280;51265;53.972;12.286;2023-04-08T11:38:03;101830.63;;;9.25;100.00
64827;BME280;51265;53.972;12.286;2023-04-08T11:40:30;101813.00;;;9.21;100.00
64827;BME280;51265;53.972;12.286;2023-04-08T11:42:56;101815.78;;;9.26;100.00
64827;BME280;51265;53.972;12.286;2023-04-08T11:45:22;101808.25;;;9.43;100.00
64827;BME280;51265;53.972;12.286;2023-04-08T11:47:49;101800.44;;;9.30;100.00
64827;BME280;51265;53.972;12.286;2023-04-08T11:50:25;101790.75;;;9.22;100.00
64827;BME280;51265;53.972;12.286;2023-04-08T11:52:52;101797.88;;;9.56;100.00
64827;BME280;51265;53.972;12.286;2023-04-08T11:55:27;101794.75;;;9.74;100.00
64827;BME280;51265;53.972;12.286;2023-04-08T11:57:55;101775.03;;;9.92;100.00
64827;BME280;51265;53.972;12.286;2023-04-08T12:00:23;101769.53;;;9.92;100.00
64827;BME280;51265;53.972;12.286;2023-04-08T12:02:50;101763.38;;;9.75;100.00
64827;BME280;51265;53.972;12.286;2023-04-08T12:05:17;101754.06;;;9.44;100.00
64827;BME280;51265;53.972;12.286;2023-04-08T12:07:43;101755.94;;;9.33;100.00
64827;BME280;51265;53.972;12.286;2023-04-08T12:10:10;101758.16;;;9.04;100.00
64827;BME280;51265;53.972;12.286;2023-04-08T12:12:37;101768.41;;;8.60;100.00
64827;BME280;51265;53.972;12.286;2023-04-08T12:15:04;101795.28;;;8.80;100.00
64827;BME280;51265;53.972;12.286;2023-04-08T12:17:31;101805.53;;;8.89;100.00
64827;BME280;51265;53.972;12.286;2023-04-08T12:19:57;101813.31;;;8.97;100.00
64827;BME280;51265;53.972;12.286;2023-04-08T12:22:24;101824.00;;;9.21;100.00
64827;BME280;51265;53.972;12.286;2023-04-08T12:24:53;101814.31;;;9.45;100.00
64827;BME280;51265;53.972;12.286;2023-04-08T12:27:19;101809.50;;;9.63;100.00
64827;BME280;51265;53.972;12.286;2023-04-08T12:29:45;101787.19;;;9.59;100.00
64827;BME280;51265;53.972;12.286;2023-04-08T12:32:12;101790.88;;;9.75;100.00
64827;BME280;51265;53.972;12.286;2023-04-08T12:34:38;101780.53;;;9.92;100.00
64827;BME280;51265;53.972;12.286;2023-04-08T12:37:05;101762.41;;;9.96;100.00
64827;BME280;51265;53.972;12.286;2023-04-08T12:39:31;101748.56;;;9.86;100.00
64827;BME280;51265;53.972;12.286;2023-04-08T12:41:58;101745.56;;;9.88;100.00
64827;BME280;51265;53.972;12.286;2023-04-08T12:44:24;101733.31;;;9.63;100.00
64827;BME280;51265;53.972;12.286;2023-04-08T12:46:51;101748.31;;;9.45;100.00
64827;BME280;51265;53.972;12.286;2023-04-08T12:49:17;101762.59;;;9.42;100.00
64827;BME280;51265;53.972;12.286;2023-04-08T12:51:43;101769.41;;;9.35;100.00
64827;BME280;51265;53.972;12.286;2023-04-08T12:54:10;101780.78;;;9.48;100.00
64827;BME280;51265;53.972;12.286;2023-04-08T12:56:37;101794.78;;;9.84;100.00
64827;BME280;51265;53.972;12.286;2023-04-08T12:59:04;101778.28;;;9.84;100.00
64827;BME280;51265;53.972;12.286;2023-04-08T13:01:30;101770.06;;;9.89;100.00
64827;BME280;51265;53.972;12.286;2023-04-08T13:03:57;101755.66;;;9.77;100.00